createdAt,value
2022-07-26T00:01:31.880Z,13.27
2022-07-26T00:04:01.036Z,13.43
2022-07-26T00:06:29.667Z,13.63
2022-07-26T00:09:00.279Z,13.45
2022-07-26T00:11:28.988Z,12.95
2022-07-26T00:13:58.591Z,14.80
2022-07-26T00:16:26.848Z,11.45
2022-07-26T00:18:55.163Z,13.25
2022-07-26T00:21:23.552Z,13.57
2022-07-26T00:23:53.586Z,13.95
2022-07-26T00:26:21.885Z,12.02
2022-07-26T00:28:50.327Z,12.80
2022-07-26T00:31:19.994Z,17.23
2022-07-26T00:33:48.579Z,14.90
2022-07-26T00:36:16.956Z,13.65
2022-07-26T00:38:45.212Z,17.42
2022-07-26T00:41:13.789Z,14.38
2022-07-26T00:43:55.425Z,13.05
2022-07-26T00:46:25.235Z,13.25
2022-07-26T00:48:53.730Z,13.20
2022-07-26T00:51:22.265Z,14.18
2022-07-26T00:53:50.791Z,12.30
2022-07-26T00:56:19.767Z,14.57
2022-07-26T00:58:48.036Z,15.02
2022-07-26T01:01:16.417Z,15.00
2022-07-26T01:03:46.658Z,13.70
2022-07-26T01:06:14.944Z,14.32
2022-07-26T01:08:43.297Z,14.50
2022-07-26T01:11:11.545Z,15.55
2022-07-26T01:13:47.623Z,16.92
2022-07-26T01:16:16.010Z,13.77
2022-07-26T01:18:45.742Z,13.25
2022-07-26T01:21:14.507Z,13.27
2022-07-26T01:23:45.042Z,14.30
2022-07-26T01:26:13.926Z,13.68
2022-07-26T01:28:43.325Z,15.82
2022-07-26T01:31:11.620Z,13.55
2022-07-26T01:33:39.902Z,14.52
2022-07-26T01:36:08.765Z,16.38
2022-07-26T01:38:39.014Z,18.45
2022-07-26T01:41:08.807Z,14.65
2022-07-26T01:43:37.459Z,12.82
2022-07-26T01:46:08.582Z,17.45
2022-07-26T01:48:37.626Z,16.67
2022-07-26T01:51:05.923Z,13.90
2022-07-26T01:53:34.132Z,13.82
2022-07-26T01:56:02.386Z,13.63
2022-07-26T01:58:31.976Z,15.57
2022-07-26T02:01:00.151Z,18.00
2022-07-26T02:03:28.392Z,16.23
2022-07-26T02:05:56.567Z,13.57
2022-07-26T02:08:24.785Z,15.80
2022-07-26T02:11:03.720Z,14.50
2022-07-26T02:13:36.004Z,15.27
2022-07-26T02:16:05.803Z,16.43
2022-07-26T02:18:34.652Z,15.63
2022-07-26T02:21:03.670Z,15.20
2022-07-26T02:23:32.379Z,15.55
2022-07-26T02:26:01.475Z,15.02
2022-07-26T02:28:29.861Z,15.18
2022-07-26T02:30:59.580Z,17.33
2022-07-26T02:33:28.195Z,14.52
2022-07-26T02:35:56.411Z,16.42
2022-07-26T02:38:25.245Z,17.20
2022-07-26T02:40:53.750Z,13.88
2022-07-26T02:43:22.315Z,17.27
2022-07-26T02:46:01.301Z,19.55
2022-07-26T02:48:32.444Z,19.63
2022-07-26T02:51:01.138Z,27.85
2022-07-26T02:53:29.479Z,17.80
2022-07-26T02:55:57.712Z,47.70
2022-07-26T02:58:27.241Z,19.67
2022-07-26T03:00:55.654Z,17.98
2022-07-26T03:03:23.966Z,18.02
2022-07-26T03:05:53.772Z,17.33
2022-07-26T03:08:22.758Z,16.63
2022-07-26T03:10:50.967Z,16.70
2022-07-26T03:13:19.343Z,16.83
2022-07-26T03:15:47.750Z,15.43
2022-07-26T03:18:16.122Z,15.73
2022-07-26T03:20:46.376Z,34.08
2022-07-26T03:23:16.161Z,16.63
2022-07-26T03:25:44.359Z,15.68
2022-07-26T03:28:17.456Z,23.17
2022-07-26T03:30:47.499Z,17.33
2022-07-26T03:33:15.892Z,18.15
2022-07-26T03:35:44.725Z,14.75
2022-07-26T03:38:12.996Z,12.10
2022-07-26T03:40:42.698Z,14.75
2022-07-26T03:43:10.847Z,18.52
2022-07-26T03:45:39.043Z,13.57
2022-07-26T03:48:08.085Z,13.80
2022-07-26T03:50:36.373Z,13.77
2022-07-26T03:53:04.759Z,14.98
2022-07-26T03:55:50.553Z,13.38
2022-07-26T03:58:20.352Z,14.95
2022-07-26T04:00:48.669Z,16.10
2022-07-26T04:03:16.973Z,13.77
2022-07-26T04:05:48.649Z,14.93
2022-07-26T04:08:17.540Z,14.23
2022-07-26T04:10:47.422Z,14.38
2022-07-26T04:13:15.641Z,12.57
2022-07-26T04:15:45.397Z,12.48
2022-07-26T04:18:14.845Z,18.73
2022-07-26T04:20:43.250Z,14.18
2022-07-26T04:23:12.459Z,13.40
2022-07-26T04:25:41.829Z,16.73
2022-07-26T04:28:10.379Z,14.18
2022-07-26T04:30:39.457Z,13.18
2022-07-26T04:33:11.658Z,14.13
2022-07-26T04:35:39.996Z,14.70
2022-07-26T04:38:08.247Z,11.98
2022-07-26T04:40:40.643Z,12.75
2022-07-26T04:43:10.618Z,16.77
2022-07-26T04:45:44.125Z,14.68
2022-07-26T04:48:13.986Z,13.60
2022-07-26T04:50:42.992Z,14.50
2022-07-26T04:53:12.070Z,13.05
2022-07-26T04:55:40.640Z,16.70
2022-07-26T04:58:09.586Z,14.30
2022-07-26T05:00:56.830Z,15.05
2022-07-26T05:03:28.210Z,17.95
2022-07-26T05:05:56.472Z,11.65
2022-07-26T05:08:24.843Z,14.23
2022-07-26T05:10:55.454Z,13.57
2022-07-26T05:13:29.690Z,15.77
2022-07-26T05:15:59.300Z,14.80
2022-07-26T05:18:31.499Z,21.95
2022-07-26T05:21:00.431Z,13.02
2022-07-26T05:23:28.679Z,14.90
2022-07-26T05:25:57.113Z,14.75
2022-07-26T05:28:25.437Z,13.45
2022-07-26T05:30:53.667Z,19.20
2022-07-26T05:33:21.947Z,14.48
2022-07-26T05:35:51.649Z,16.25
2022-07-26T05:38:20.822Z,14.13
2022-07-26T05:40:50.872Z,16.90
2022-07-26T05:43:19.466Z,12.70
2022-07-26T05:45:47.685Z,11.63
2022-07-26T05:48:15.906Z,12.88
2022-07-26T05:50:45.882Z,14.70
2022-07-26T05:53:17.958Z,14.18
2022-07-26T05:55:46.320Z,25.50
2022-07-26T05:58:14.882Z,14.38
2022-07-26T06:00:48.407Z,12.63
2022-07-26T06:03:26.165Z,11.68
2022-07-26T06:05:57.929Z,13.98
2022-07-26T06:08:35.463Z,14.25
2022-07-26T06:11:03.700Z,12.60
2022-07-26T06:13:31.975Z,11.32
2022-07-26T06:16:00.404Z,12.70
2022-07-26T06:18:28.627Z,14.95
2022-07-26T06:21:00.168Z,14.38
2022-07-26T06:23:34.506Z,12.98
2022-07-26T06:26:06.173Z,14.35
2022-07-26T06:28:35.283Z,13.50
2022-07-26T06:31:03.855Z,12.30
2022-07-26T06:33:32.187Z,13.27
2022-07-26T06:36:00.819Z,15.70
2022-07-26T06:38:29.187Z,12.40
2022-07-26T06:40:59.185Z,11.43
2022-07-26T06:43:27.798Z,13.43
2022-07-26T06:45:56.058Z,11.80
2022-07-26T06:48:24.288Z,11.45
2022-07-26T06:50:52.846Z,12.27
2022-07-26T06:53:21.223Z,16.92
2022-07-26T06:55:49.486Z,12.55
2022-07-26T06:58:19.373Z,11.18
2022-07-26T07:00:47.912Z,14.02
2022-07-26T07:03:16.259Z,11.75
2022-07-26T07:05:49.461Z,12.75
2022-07-26T07:08:18.531Z,12.27
2022-07-26T07:10:48.387Z,12.00
2022-07-26T07:13:21.100Z,12.82
2022-07-26T07:15:49.553Z,11.30
2022-07-26T07:18:17.788Z,12.40
2022-07-26T07:20:48.503Z,12.60
2022-07-26T07:23:16.792Z,13.75
2022-07-26T07:25:45.116Z,12.20
2022-07-26T07:28:13.507Z,13.32
2022-07-26T07:30:43.302Z,14.15
2022-07-26T07:33:22.893Z,11.82
2022-07-26T07:35:52.504Z,14.55
2022-07-26T07:38:22.428Z,11.38
2022-07-26T07:40:51.040Z,12.40
2022-07-26T07:43:21.072Z,13.35
2022-07-26T07:45:53.153Z,12.50
2022-07-26T07:48:21.545Z,14.13
2022-07-26T07:50:49.764Z,12.50
2022-07-26T07:53:17.965Z,15.13
2022-07-26T07:55:50.232Z,15.25
2022-07-26T07:58:23.630Z,15.13
2022-07-26T08:00:54.379Z,17.05
2022-07-26T08:03:22.893Z,12.73
2022-07-26T08:05:51.429Z,14.18
2022-07-26T08:08:22.335Z,12.88
2022-07-26T08:10:53.086Z,19.77
2022-07-26T08:13:22.813Z,11.93
2022-07-26T08:15:53.178Z,14.00
2022-07-26T08:18:22.434Z,14.93
2022-07-26T08:20:51.402Z,15.43
2022-07-26T08:23:20.463Z,13.93
2022-07-26T08:25:58.657Z,15.10
2022-07-26T08:28:46.971Z,17.00
2022-07-26T08:31:20.157Z,13.80
2022-07-26T08:33:49.017Z,15.38
2022-07-26T08:36:17.924Z,12.43
2022-07-26T08:38:48.012Z,14.05
2022-07-26T08:41:17.320Z,12.82
2022-07-26T08:43:52.941Z,13.38
2022-07-26T08:46:26.599Z,12.73
2022-07-26T08:48:56.121Z,12.95
2022-07-26T08:51:26.077Z,14.73
2022-07-26T08:54:04.096Z,15.70
2022-07-26T08:56:35.291Z,15.70
2022-07-26T08:59:07.958Z,14.27
2022-07-26T09:01:53.318Z,19.42
2022-07-26T09:04:33.260Z,13.73
2022-07-26T09:07:06.660Z,15.95
2022-07-26T09:09:36.182Z,15.63
2022-07-26T09:12:21.343Z,16.42
2022-07-26T09:14:49.694Z,13.02
2022-07-26T09:17:20.745Z,15.05
2022-07-26T09:20:05.759Z,13.68
2022-07-26T09:22:34.030Z,15.70
2022-07-26T09:25:03.210Z,14.50
2022-07-26T09:27:37.110Z,13.88
2022-07-26T09:30:10.094Z,14.18
2022-07-26T09:32:39.951Z,13.25
2022-07-26T09:35:37.037Z,13.77
2022-07-26T09:38:01.243Z,14.52
2022-07-26T09:40:35.346Z,13.63
2022-07-26T09:43:05.583Z,14.50
2022-07-26T09:45:35.146Z,15.75
2022-07-26T09:48:05.683Z,15.50
2022-07-26T09:50:34.858Z,14.20
2022-07-26T09:53:07.503Z,16.75
2022-07-26T09:55:44.544Z,16.50
2022-07-26T09:58:14.371Z,17.33
2022-07-26T10:00:43.658Z,15.63
2022-07-26T10:03:13.471Z,16.65
2022-07-26T10:05:42.623Z,17.98
2022-07-26T10:08:11.283Z,16.17
2022-07-26T10:10:44.147Z,19.70
2022-07-26T10:13:13.119Z,19.20
2022-07-26T10:15:43.538Z,15.95
2022-07-26T10:18:43.990Z,16.50
2022-07-26T10:21:23.544Z,15.50
2022-07-26T10:23:52.885Z,16.10
2022-07-26T10:26:42.176Z,15.95
2022-07-26T10:29:26.711Z,15.23
2022-07-26T10:32:17.728Z,15.85
2022-07-26T10:34:47.895Z,15.50
2022-07-26T10:37:28.303Z,16.00
2022-07-26T10:40:24.767Z,15.68
2022-07-26T10:42:53.231Z,16.20
2022-07-26T10:45:23.644Z,15.93
2022-07-26T10:48:12.589Z,15.60
2022-07-26T10:50:43.152Z,17.95
2022-07-26T10:53:14.697Z,16.30
2022-07-26T10:55:51.359Z,15.73
2022-07-26T10:58:20.220Z,17.70
2022-07-26T11:01:01.774Z,16.10
2022-07-26T11:03:41.659Z,16.23
2022-07-26T11:06:18.194Z,21.80
2022-07-26T11:08:48.938Z,16.05
2022-07-26T11:11:28.947Z,16.98
2022-07-26T11:14:06.605Z,17.50
2022-07-26T11:16:39.326Z,16.52
2022-07-26T11:19:15.884Z,16.92
2022-07-26T11:21:45.984Z,16.60
2022-07-26T11:24:14.691Z,15.55
2022-07-26T11:26:43.735Z,16.17
2022-07-26T11:29:14.266Z,20.60
2022-07-26T11:31:51.456Z,17.00
2022-07-26T11:34:31.242Z,16.52
2022-07-26T11:37:03.119Z,14.63
2022-07-26T11:39:32.882Z,15.60
2022-07-26T11:42:02.821Z,15.75
2022-07-26T11:44:33.214Z,16.40
2022-07-26T11:47:01.808Z,15.13
2022-07-26T11:52:25.544Z,15.27
2022-07-26T11:54:54.721Z,16.05
2022-07-26T11:57:22.954Z,13.63
2022-07-26T11:59:51.811Z,14.65
2022-07-26T12:02:22.177Z,16.33
2022-07-26T12:05:14.032Z,15.60
2022-07-26T12:07:57.676Z,15.18
2022-07-26T12:10:26.799Z,15.93
2022-07-26T12:13:12.438Z,16.70
2022-07-26T12:15:52.169Z,19.42
2022-07-26T12:18:25.590Z,17.63
2022-07-26T12:21:05.216Z,15.98
2022-07-26T12:23:48.561Z,16.50
2022-07-26T12:26:22.002Z,16.00
2022-07-26T12:28:50.425Z,17.40
2022-07-26T12:31:29.048Z,16.15
2022-07-26T12:33:58.013Z,16.02
2022-07-26T12:36:27.804Z,15.50
2022-07-26T12:39:01.322Z,16.73
2022-07-26T12:41:35.023Z,17.23
2022-07-26T12:44:03.642Z,17.75
2022-07-26T12:46:33.792Z,15.75
2022-07-26T12:49:02.436Z,16.20
2022-07-26T12:51:30.977Z,16.77
2022-07-26T12:54:00.673Z,16.67
2022-07-26T12:56:29.090Z,16.73
2022-07-26T12:59:01.615Z,18.25
2022-07-26T13:01:30.854Z,15.43
2022-07-26T13:03:59.310Z,17.90
2022-07-26T13:06:27.648Z,16.77
2022-07-26T13:08:56.620Z,15.65
2022-07-26T13:11:26.667Z,14.52
2022-07-26T13:13:56.038Z,15.80
2022-07-26T13:16:24.550Z,15.25
2022-07-26T13:18:52.983Z,17.50
2022-07-26T13:21:21.404Z,18.92
2022-07-26T13:23:49.618Z,14.98
2022-07-26T13:26:17.925Z,16.23
2022-07-26T13:28:49.946Z,14.90
2022-07-26T13:31:18.856Z,15.57
2022-07-26T13:33:47.366Z,23.42
2022-07-26T13:36:15.572Z,15.25
2022-07-26T13:38:45.734Z,17.55
2022-07-26T13:41:14.076Z,20.67
2022-07-26T13:43:44.197Z,24.85
2022-07-26T13:46:14.299Z,23.35
2022-07-26T13:48:58.250Z,22.63
2022-07-26T13:51:45.277Z,23.38
2022-07-26T13:54:14.526Z,20.05
2022-07-26T13:56:45.722Z,32.50
2022-07-26T13:59:16.868Z,18.60
2022-07-26T14:01:46.742Z,18.67
2022-07-26T14:04:15.801Z,19.52
2022-07-26T14:06:44.732Z,20.88
2022-07-26T14:09:13.283Z,17.70
2022-07-26T14:11:41.876Z,19.30
2022-07-26T14:14:12.173Z,22.63
2022-07-26T14:16:41.492Z,18.63
2022-07-26T14:19:11.273Z,19.63
2022-07-26T14:21:47.090Z,20.05
2022-07-26T14:24:28.247Z,21.25
2022-07-26T14:26:59.227Z,19.60
2022-07-26T14:29:28.551Z,22.52
2022-07-26T14:31:56.860Z,20.85
2022-07-26T14:34:26.620Z,22.17
2022-07-26T14:36:54.919Z,25.50
2022-07-26T14:39:23.177Z,21.10
2022-07-26T14:41:51.777Z,27.05
2022-07-26T14:44:20.203Z,20.58
2022-07-26T14:46:48.626Z,23.98
2022-07-26T14:49:17.159Z,24.33
2022-07-26T14:51:48.014Z,26.80
2022-07-26T14:54:17.615Z,20.17
2022-07-26T14:56:45.875Z,19.23
2022-07-26T14:59:14.148Z,22.20
2022-07-26T15:01:42.486Z,20.55
2022-07-26T15:04:11.298Z,18.65
2022-07-26T15:06:39.854Z,17.75
2022-07-26T15:09:09.529Z,19.58
2022-07-26T15:11:37.802Z,16.83
2022-07-26T15:14:06.582Z,16.35
2022-07-26T15:16:35.040Z,16.95
2022-07-26T15:19:05.737Z,17.23
2022-07-26T15:21:34.097Z,18.33
2022-07-26T15:24:02.925Z,21.50
2022-07-26T15:26:33.931Z,16.42
2022-07-26T15:29:02.276Z,16.85
2022-07-26T15:31:36.625Z,18.63
2022-07-26T15:34:08.761Z,15.70
2022-07-26T15:36:39.235Z,19.42
2022-07-26T15:39:23.493Z,17.38
2022-07-26T15:41:53.136Z,18.48
2022-07-26T15:44:23.774Z,17.65
2022-07-26T15:46:56.780Z,21.50
2022-07-26T15:49:25.363Z,20.50
2022-07-26T15:51:56.256Z,16.23
2022-07-26T15:54:24.563Z,25.35
2022-07-26T15:56:54.336Z,17.77
2022-07-26T15:59:22.720Z,16.05
2022-07-26T16:01:51.044Z,18.00
2022-07-26T16:04:19.545Z,19.00
2022-07-26T16:06:48.282Z,17.60
2022-07-26T16:09:18.181Z,21.33
2022-07-26T16:11:47.304Z,19.50
2022-07-26T16:14:17.010Z,21.65
2022-07-26T16:16:45.618Z,24.92
2022-07-26T16:19:14.475Z,21.67
2022-07-26T16:21:43.151Z,20.98
2022-07-26T16:24:11.388Z,19.00
2022-07-26T16:26:40.052Z,19.50
2022-07-26T16:29:08.437Z,18.77
2022-07-26T16:31:39.005Z,18.95
2022-07-26T16:34:07.402Z,17.20
2022-07-26T16:36:36.043Z,21.48
2022-07-26T16:39:04.258Z,19.75
2022-07-26T16:41:32.818Z,17.33
2022-07-26T16:44:01.051Z,20.02
2022-07-26T16:46:29.440Z,16.38
2022-07-26T16:48:59.293Z,20.83
2022-07-26T16:51:33.515Z,16.77
2022-07-26T16:54:01.962Z,16.67
2022-07-26T16:56:30.181Z,17.77
2022-07-26T16:58:58.492Z,15.80
2022-07-26T17:01:26.973Z,14.70
2022-07-26T17:03:55.256Z,17.95
2022-07-26T17:06:27.373Z,18.42
2022-07-26T17:08:55.586Z,19.58
2022-07-26T17:11:23.789Z,17.15
2022-07-26T17:13:53.627Z,17.83
2022-07-26T17:16:24.455Z,20.45
2022-07-26T17:18:53.386Z,14.95
2022-07-26T17:21:21.938Z,20.45
2022-07-26T17:23:52.026Z,15.90
2022-07-26T17:26:21.219Z,18.60
2022-07-26T17:28:49.507Z,16.92
2022-07-26T17:31:18.284Z,16.80
2022-07-26T17:33:46.706Z,22.27
2022-07-26T17:36:23.596Z,16.90
2022-07-26T17:38:53.660Z,20.05
2022-07-26T17:41:23.554Z,18.10
2022-07-26T17:44:02.551Z,18.20
2022-07-26T17:46:32.857Z,19.98
2022-07-26T17:49:01.641Z,19.20
2022-07-26T17:51:29.990Z,22.10
2022-07-26T17:53:59.726Z,19.67
2022-07-26T17:56:28.303Z,20.15
2022-07-26T17:58:56.663Z,19.80
2022-07-26T18:01:25.447Z,21.92
2022-07-26T18:03:53.802Z,21.48
2022-07-26T18:06:22.121Z,23.23
2022-07-26T18:08:50.590Z,26.02
2022-07-26T18:11:22.971Z,25.30
2022-07-26T18:13:51.299Z,23.23
2022-07-26T18:16:27.194Z,23.08
2022-07-26T18:18:57.102Z,23.75
2022-07-26T18:21:25.380Z,22.13
2022-07-26T18:24:15.261Z,31.30
2022-07-26T18:26:44.339Z,20.92
2022-07-26T18:29:16.596Z,20.73
2022-07-26T18:31:45.334Z,26.45
2022-07-26T18:34:19.750Z,22.20
2022-07-26T18:36:48.158Z,26.52
2022-07-26T18:39:16.594Z,25.38
2022-07-26T18:41:49.352Z,24.20
2022-07-26T18:44:17.964Z,22.42
2022-07-26T18:46:46.353Z,25.70
2022-07-26T18:49:20.071Z,25.77
2022-07-26T18:51:49.642Z,27.02
2022-07-26T18:54:18.039Z,24.15
2022-07-26T18:56:46.372Z,26.63
2022-07-26T18:59:15.995Z,22.05
2022-07-26T19:01:44.337Z,24.45
2022-07-26T19:04:12.949Z,25.17
2022-07-26T19:06:41.269Z,22.98
2022-07-26T19:09:09.767Z,23.67
2022-07-26T19:11:40.999Z,25.08
2022-07-26T19:14:09.318Z,21.83
2022-07-26T19:16:39.101Z,22.67
2022-07-26T19:19:07.359Z,20.75
2022-07-26T19:21:35.837Z,25.08
2022-07-26T19:24:04.138Z,28.40
2022-07-26T19:26:32.407Z,24.05
2022-07-26T19:29:00.874Z,25.17
2022-07-26T19:31:29.101Z,28.08
2022-07-26T19:33:58.834Z,23.10
2022-07-26T19:36:27.381Z,22.40
2022-07-26T19:38:56.688Z,24.83
2022-07-26T19:41:25.207Z,24.08
2022-07-26T19:43:53.591Z,23.42
2022-07-26T19:46:21.944Z,25.38
2022-07-26T19:48:50.778Z,26.80
2022-07-26T19:51:22.034Z,30.27
2022-07-26T19:53:50.789Z,33.17
2022-07-26T19:56:19.224Z,29.02
2022-07-26T19:58:50.090Z,30.23
2022-07-26T20:01:18.558Z,27.08
2022-07-26T20:03:46.800Z,30.38
2022-07-26T20:06:15.234Z,30.45
2022-07-26T20:08:46.013Z,32.80
2022-07-26T20:11:15.765Z,28.00
2022-07-26T20:13:45.799Z,30.65
2022-07-26T20:16:15.726Z,31.83
2022-07-26T20:18:44.116Z,29.38
2022-07-26T20:21:14.754Z,29.38
2022-07-26T20:23:46.307Z,29.73
2022-07-26T20:26:14.725Z,30.67
2022-07-26T20:28:43.071Z,31.95
2022-07-26T20:31:11.529Z,28.70
2022-07-26T20:33:40.001Z,28.08
2022-07-26T20:36:08.578Z,33.38
2022-07-26T20:38:36.920Z,28.33
2022-07-26T20:41:06.829Z,29.85
2022-07-26T20:43:35.063Z,31.40
2022-07-26T20:46:03.409Z,29.38
2022-07-26T20:48:31.728Z,31.42
2022-07-26T20:51:00.166Z,26.95
2022-07-26T20:53:28.419Z,28.88
2022-07-26T20:55:56.617Z,28.45
2022-07-26T20:58:26.204Z,24.58
2022-07-26T21:00:54.742Z,26.27
2022-07-26T21:03:23.043Z,30.65
2022-07-26T21:05:51.599Z,27.05
2022-07-26T21:08:20.100Z,34.95
2022-07-26T21:10:48.732Z,36.92
2022-07-26T21:13:17.044Z,24.27
2022-07-26T21:15:46.823Z,31.33
2022-07-26T21:18:14.988Z,29.02
2022-07-26T21:20:43.248Z,27.67
2022-07-26T21:23:17.671Z,26.80
2022-07-26T21:25:46.833Z,34.00
2022-07-26T21:28:15.913Z,29.10
2022-07-26T21:30:45.058Z,34.13
2022-07-26T21:33:16.121Z,31.17
2022-07-26T21:35:46.833Z,31.27
2022-07-26T21:38:16.516Z,26.35
2022-07-26T21:40:45.929Z,28.52
2022-07-26T21:43:16.011Z,30.15
2022-07-26T21:45:48.476Z,33.42
2022-07-26T21:48:19.607Z,29.58
2022-07-26T21:50:48.761Z,27.52
2022-07-26T21:53:17.120Z,30.75
2022-07-26T21:55:47.988Z,29.20
2022-07-26T21:58:16.367Z,27.48
2022-07-26T22:00:44.842Z,29.85
2022-07-26T22:03:13.283Z,34.67
2022-07-26T22:05:43.740Z,27.70
2022-07-26T22:08:14.267Z,30.45
2022-07-26T22:10:45.630Z,26.13
2022-07-26T22:13:14.757Z,27.88
2022-07-26T22:15:43.655Z,27.20
2022-07-26T22:18:12.159Z,32.97
2022-07-26T22:20:40.785Z,28.92
2022-07-26T22:23:12.262Z,30.13
2022-07-26T22:25:40.739Z,32.33
2022-07-26T22:28:09.756Z,33.50
2022-07-26T22:30:38.386Z,27.90
2022-07-26T22:33:07.987Z,33.40
2022-07-26T22:35:36.911Z,29.92
2022-07-26T22:38:07.116Z,30.35
2022-07-26T22:40:37.613Z,26.58
2022-07-26T22:43:06.275Z,31.35
2022-07-26T22:45:35.036Z,34.70
2022-07-26T22:48:04.758Z,29.02
2022-07-26T22:50:33.825Z,32.15
2022-07-26T22:53:02.366Z,27.30
2022-07-26T22:55:30.800Z,32.50
2022-07-26T22:58:00.631Z,29.27
2022-07-26T23:00:29.105Z,32.97
2022-07-26T23:02:59.254Z,29.42
2022-07-26T23:05:45.117Z,35.38
2022-07-26T23:08:43.864Z,32.65
2022-07-26T23:11:03.395Z,31.25
2022-07-26T23:13:33.412Z,30.13
2022-07-26T23:16:02.110Z,32.20
2022-07-26T23:18:30.915Z,31.05
2022-07-26T23:20:59.551Z,33.35
2022-07-26T23:23:29.874Z,30.88
2022-07-26T23:25:59.330Z,33.60
2022-07-26T23:28:37.753Z,31.20
2022-07-26T23:31:11.450Z,35.72
2022-07-26T23:33:52.742Z,33.45
2022-07-26T23:36:24.253Z,38.37
2022-07-26T23:38:52.611Z,32.90
2022-07-26T23:41:20.972Z,30.13
2022-07-26T23:43:49.697Z,36.53
2022-07-26T23:46:19.594Z,29.33
2022-07-26T23:48:48.064Z,32.05
2022-07-26T23:51:16.515Z,29.33
2022-07-26T23:53:44.940Z,29.10
2022-07-26T23:56:13.174Z,34.25
2022-07-26T23:58:41.466Z,33.30
